Time;durP1;ratioP1;P1;durP2;ratioP2;P2;SDS_P1;SDS_P2;PMS_P1;PMS_P2;Temp;Humidity;BMP_temperature;BMP_pressure;BME280_temperature;BME280_humidity;BME280_pressure;Samples;Min_cycle;Max_cycle;Signal;HPM_P1;HPM_P2
2022/04/07 00:01:15;;;;;;;8.20;5.85;;;8.80;99.90;;;;;;5031280;28;20045;-73
2022/04/07 00:03:41;;;;;;;8.55;6.43;;;8.80;99.90;;;;;;5023222;28;20109;-73
2022/04/07 00:06:09;;;;;;;8.38;6.55;;;8.90;99.90;;;;;;5028397;28;20042;-72
2022/04/07 00:08:39;;;;;;;7.57;5.85;;;8.80;99.90;;;;;;5028939;28;20152;-73
2022/04/07 00:11:06;;;;;;;7.97;6.70;;;8.90;99.90;;;;;;5033532;28;20056;-72
2022/04/07 00:13:32;;;;;;;10.73;7.28;;;8.80;99.90;;;;;;5032988;28;20084;-73
2022/04/07 00:16:00;;;;;;;9.02;7.65;;;8.80;99.90;;;;;;5031814;28;20034;-73
2022/04/07 00:18:29;;;;;;;10.10;7.60;;;8.80;99.90;;;;;;5064492;28;20094;-73
2022/04/07 00:20:57;;;;;;;12.63;8.57;;;8.70;99.90;;;;;;5040509;28;20053;-73
2022/04/07 00:23:22;;;;;;;8.18;6.97;;;8.60;99.90;;;;;;5041493;28;20120;-73
2022/04/07 00:25:49;;;;;;;9.88;8.88;;;8.60;99.90;;;;;;5044183;28;20132;-73
2022/04/07 00:28:15;;;;;;;12.77;8.80;;;8.60;99.90;;;;;;5046767;28;20033;-73
2022/04/07 00:30:43;;;;;;;16.30;8.68;;;8.60;99.90;;;;;;5026932;28;20057;-73
2022/04/07 00:33:09;;;;;;;10.40;9.30;;;8.60;99.90;;;;;;5042693;28;20072;-73
2022/04/07 00:35:36;;;;;;;10.50;9.18;;;8.50;99.90;;;;;;5045160;28;20041;-73
2022/04/07 00:38:02;;;;;;;12.60;9.05;;;8.50;99.90;;;;;;5040728;28;20453;-73
2022/04/07 00:40:28;;;;;;;16.02;10.13;;;8.50;99.90;;;;;;5045827;28;20028;-73
2022/04/07 00:42:54;;;;;;;14.95;10.10;;;8.50;99.90;;;;;;5046761;28;20033;-73
2022/04/07 00:45:22;;;;;;;13.48;10.23;;;8.50;99.90;;;;;;5046731;28;20037;-73
2022/04/07 00:47:49;;;;;;;13.60;9.30;;;8.50;99.90;;;;;;5045518;28;20112;-73
2022/04/07 00:50:17;;;;;;;11.60;9.27;;;8.50;99.90;;;;;;5047033;28;20048;-73
2022/04/07 00:52:52;;;;;;;11.40;8.93;;;8.60;99.90;;;;;;5048350;28;20056;-73
2022/04/07 00:55:20;;;;;;;11.80;9.60;;;8.60;99.90;;;;;;5046423;28;20056;-73
2022/04/07 00:57:46;;;;;;;13.57;10.02;;;8.60;99.90;;;;;;5044903;28;20558;-72
2022/04/07 01:00:13;;;;;;;11.52;9.35;;;8.60;99.90;;;;;;5045268;28;20498;-73
2022/04/07 01:02:39;;;;;;;14.45;9.55;;;8.60;99.90;;;;;;5046561;28;20037;-72
2022/04/07 01:05:07;;;;;;;12.70;9.18;;;8.60;99.90;;;;;;5038430;28;20049;-73
2022/04/07 01:07:37;;;;;;;12.88;9.65;;;8.60;99.90;;;;;;5045052;28;20443;-73
2022/04/07 01:10:06;;;;;;;11.70;8.10;;;8.60;99.90;;;;;;5048499;28;20033;-73
2022/04/07 01:12:31;;;;;;;10.68;7.90;;;8.60;99.90;;;;;;5044263;28;20049;-73
2022/04/07 01:15:01;;;;;;;10.20;8.13;;;8.60;99.90;;;;;;5042915;28;20037;-72
2022/04/07 01:17:28;;;;;;;13.45;8.30;;;8.60;99.90;;;;;;5030279;28;20038;-73
2022/04/07 01:19:54;;;;;;;11.38;7.75;;;8.60;99.90;;;;;;5039914;28;20041;-72
2022/04/07 01:22:21;;;;;;;10.85;8.32;;;8.60;99.90;;;;;;5047330;28;20716;-72
2022/04/07 01:24:47;;;;;;;10.70;7.78;;;8.60;99.90;;;;;;5029632;28;20040;-72
2022/04/07 01:27:14;;;;;;;9.45;6.95;;;8.60;99.90;;;;;;5046178;28;20068;-72
2022/04/07 01:29:40;;;;;;;8.77;7.40;;;8.60;99.90;;;;;;5043254;28;20064;-73
2022/04/07 01:32:16;;;;;;;10.77;7.90;;;8.60;99.90;;;;;;5047633;28;20066;-73
2022/04/07 01:34:42;;;;;;;10.93;8.05;;;8.60;99.90;;;;;;5039356;28;20402;-73
2022/04/07 01:37:10;;;;;;;11.18;7.47;;;8.60;99.90;;;;;;5048710;28;20053;-73
2022/04/07 01:39:39;;;;;;;10.40;7.82;;;8.60;99.90;;;;;;5028770;28;20045;-72
2022/04/07 01:42:05;;;;;;;9.75;7.55;;;8.60;99.90;;;;;;5030439;28;20041;-72
2022/04/07 01:44:36;;;;;;;8.68;6.80;;;8.60;99.90;;;;;;5044712;28;20111;-72
2022/04/07 01:47:02;;;;;;;9.82;6.32;;;8.60;99.90;;;;;;5042871;28;20731;-72
2022/04/07 01:49:30;;;;;;;10.80;7.32;;;8.70;99.90;;;;;;5045887;28;20037;-73
2022/04/07 01:51:59;;;;;;;8.98;5.88;;;8.70;99.90;;;;;;5042547;28;20039;-72
2022/04/07 01:54:26;;;;;;;9.98;5.60;;;8.70;99.90;;;;;;5069016;28;20583;-73
2022/04/07 01:56:52;;;;;;;9.90;5.30;;;8.70;99.90;;;;;;5044754;28;20553;-72
2022/04/07 01:59:19;;;;;;;9.82;6.18;;;8.70;99.90;;;;;;5047137;28;20368;-73
2022/04/07 02:01:45;;;;;;;16.30;6.32;;;8.70;99.90;;;;;;5045486;28;20418;-72
2022/04/07 02:04:11;;;;;;;9.48;6.18;;;8.60;99.90;;;;;;5043013;28;20030;-73
2022/04/07 02:06:37;;;;;;;9.25;5.65;;;8.60;99.90;;;;;;5044860;28;20110;-73
2022/04/07 02:09:03;;;;;;;5.60;3.83;;;8.60;99.90;;;;;;5042152;28;20506;-73
2022/04/07 02:11:29;;;;;;;8.02;5.43;;;8.60;99.90;;;;;;5046346;28;20112;-73
2022/04/07 02:13:55;;;;;;;12.25;5.55;;;8.50;99.90;;;;;;5045045;28;20107;-73
2022/04/07 02:16:22;;;;;;;9.35;5.30;;;8.50;99.90;;;;;;5038421;28;20487;-73
2022/04/07 02:18:48;;;;;;;10.27;5.43;;;8.60;99.90;;;;;;5029470;28;20045;-73
2022/04/07 02:21:14;;;;;;;9.10;5.85;;;8.60;99.90;;;;;;5032628;28;20522;-73
2022/04/07 02:23:43;;;;;;;7.35;4.82;;;8.50;99.90;;;;;;5028601;28;20049;-72
2022/04/07 02:26:13;;;;;;;7.32;5.35;;;8.50;99.90;;;;;;5035185;28;20098;-73
2022/04/07 02:28:42;;;;;;;11.07;5.05;;;8.50;99.90;;;;;;5040900;28;20119;-73
2022/04/07 02:31:09;;;;;;;7.15;4.90;;;8.50;99.90;;;;;;5043597;28;20040;-73
2022/04/07 02:33:36;;;;;;;12.00;5.45;;;8.60;99.90;;;;;;5043333;28;20052;-73
2022/04/07 02:36:03;;;;;;;8.07;4.28;;;8.50;99.90;;;;;;5040177;28;20047;-73
2022/04/07 02:38:29;;;;;;;8.80;4.95;;;8.50;99.90;;;;;;5045023;28;20087;-73
2022/04/07 02:40:55;;;;;;;9.32;5.15;;;8.50;99.90;;;;;;5046855;28;20627;-73
2022/04/07 02:43:21;;;;;;;11.18;5.20;;;8.50;99.90;;;;;;5044302;28;20025;-73
2022/04/07 02:45:46;;;;;;;9.60;5.00;;;8.50;99.90;;;;;;5042913;28;20105;-72
2022/04/07 02:48:12;;;;;;;14.15;5.88;;;8.50;99.90;;;;;;5043891;28;20054;-72
2022/04/07 02:50:38;;;;;;;11.13;5.85;;;8.40;99.90;;;;;;5042478;28;20543;-72
2022/04/07 02:53:03;;;;;;;11.02;5.63;;;8.40;99.90;;;;;;5047480;28;20061;-73
2022/04/07 02:55:29;;;;;;;10.90;6.03;;;8.40;99.90;;;;;;5043039;28;20041;-73
2022/04/07 02:57:59;;;;;;;10.50;5.57;;;8.40;99.90;;;;;;5043588;28;20053;-73
2022/04/07 03:00:25;;;;;;;11.23;5.95;;;8.40;99.90;;;;;;5043122;28;20394;-73
2022/04/07 03:02:51;;;;;;;9.95;5.82;;;8.40;99.90;;;;;;5044751;28;20437;-73
2022/04/07 03:05:17;;;;;;;8.27;5.45;;;8.40;99.90;;;;;;5043874;28;20511;-72
2022/04/07 03:07:43;;;;;;;9.13;5.68;;;8.50;99.90;;;;;;5039195;28;20029;-73
2022/04/07 03:10:09;;;;;;;9.55;4.82;;;8.50;99.90;;;;;;5039653;28;20045;-73
2022/04/07 03:12:35;;;;;;;11.75;5.80;;;8.50;99.90;;;;;;5043238;28;20044;-73
2022/04/07 03:15:01;;;;;;;12.57;5.60;;;8.50;99.90;;;;;;5044051;28;20475;-73
2022/04/07 03:17:27;;;;;;;11.35;5.35;;;8.40;99.90;;;;;;5045911;28;20406;-74
2022/04/07 03:19:53;;;;;;;10.85;6.18;;;8.40;99.90;;;;;;5042236;28;20040;-74
2022/04/07 03:22:19;;;;;;;11.70;6.55;;;8.30;99.90;;;;;;5041758;28;20048;-73
2022/04/07 03:24:46;;;;;;;11.63;6.85;;;8.30;99.90;;;;;;5029563;28;20255;-73
2022/04/07 03:27:12;;;;;;;10.85;6.10;;;8.20;99.90;;;;;;5029436;28;20460;-73
2022/04/07 03:29:38;;;;;;;17.88;6.80;;;8.20;99.90;;;;;;5027669;28;20065;-74
2022/04/07 03:32:05;;;;;;;8.77;5.47;;;8.20;99.90;;;;;;5028842;28;20065;-74
2022/04/07 03:34:33;;;;;;;13.85;6.80;;;8.10;99.90;;;;;;5028916;28;20034;-74
2022/04/07 03:36:59;;;;;;;17.00;6.55;;;8.10;99.90;;;;;;5027616;28;20577;-75
2022/04/07 03:39:25;;;;;;;15.10;6.80;;;8.10;99.90;;;;;;5029512;28;20099;-75
2022/04/07 03:41:51;;;;;;;14.02;6.60;;;8.00;99.90;;;;;;5028936;28;20033;-75
2022/04/07 03:44:18;;;;;;;11.40;6.63;;;8.00;99.90;;;;;;5029522;28;20042;-75
2022/04/07 03:46:44;;;;;;;15.70;7.38;;;8.00;99.90;;;;;;5028360;28;20033;-74
2022/04/07 03:49:10;;;;;;;14.00;6.85;;;7.90;99.90;;;;;;5029529;28;20061;-74
2022/04/07 03:51:36;;;;;;;19.10;7.05;;;7.90;99.90;;;;;;5028740;28;20487;-74
2022/04/07 03:54:02;;;;;;;19.13;6.63;;;7.90;99.90;;;;;;5027003;28;20061;-74
2022/04/07 03:56:27;;;;;;;12.38;5.60;;;7.90;99.90;;;;;;5024116;28;20491;-75
2022/04/07 03:58:53;;;;;;;14.25;5.40;;;7.90;99.90;;;;;;5042558;28;20120;-76
2022/04/07 04:01:19;;;;;;;14.52;6.13;;;7.90;99.90;;;;;;5041631;28;20037;-76
2022/04/07 04:03:45;;;;;;;14.73;5.90;;;7.90;99.90;;;;;;5042668;28;20037;-76
2022/04/07 04:06:10;;;;;;;16.95;6.18;;;7.80;99.90;;;;;;5038950;28;20033;-75
2022/04/07 04:08:36;;;;;;;11.93;5.47;;;7.80;99.90;;;;;;5045696;28;20127;-76
2022/04/07 04:11:02;;;;;;;13.20;5.88;;;7.80;99.90;;;;;;5045305;28;20033;-76
2022/04/07 04:13:29;;;;;;;11.43;6.22;;;7.80;99.90;;;;;;5027154;28;20040;-76
2022/04/07 04:15:55;;;;;;;20.88;6.47;;;7.80;99.90;;;;;;5048247;28;20349;-75
2022/04/07 04:18:21;;;;;;;15.15;5.78;;;7.80;99.90;;;;;;5045770;28;20044;-75
2022/04/07 04:20:47;;;;;;;11.38;5.18;;;7.80;99.90;;;;;;5044175;28;20045;-76
2022/04/07 04:23:13;;;;;;;20.17;5.72;;;7.90;99.90;;;;;;5046823;28;20033;-75
2022/04/07 04:25:39;;;;;;;15.32;6.28;;;7.90;99.90;;;;;;5046376;28;20029;-75
2022/04/07 04:28:04;;;;;;;13.70;5.57;;;7.90;99.90;;;;;;5048771;28;20091;-75
2022/04/07 04:30:30;;;;;;;25.05;5.35;;;7.90;99.90;;;;;;5024687;28;20040;-75
2022/04/07 04:32:56;;;;;;;17.20;5.97;;;8.00;99.90;;;;;;5044806;28;20045;-75
2022/04/07 04:35:22;;;;;;;20.83;4.82;;;8.00;99.90;;;;;;5042805;28;20037;-75
2022/04/07 04:37:48;;;;;;;12.68;5.38;;;7.90;99.90;;;;;;5046671;28;20478;-75
2022/04/07 04:40:13;;;;;;;13.55;5.03;;;8.00;99.90;;;;;;5048500;28;20045;-74
2022/04/07 04:42:41;;;;;;;18.30;6.55;;;8.00;99.90;;;;;;5048994;28;20463;-74
2022/04/07 04:45:07;;;;;;;16.00;5.30;;;8.00;99.90;;;;;;5044690;28;20295;-75
2022/04/07 04:47:33;;;;;;;16.85;6.00;;;8.00;99.90;;;;;;5045028;28;20029;-74
2022/04/07 04:49:59;;;;;;;12.48;5.03;;;8.00;99.90;;;;;;5035378;28;20376;-74
2022/04/07 04:52:25;;;;;;;19.15;5.80;;;8.00;99.90;;;;;;5036481;28;20167;-74
2022/04/07 04:54:51;;;;;;;17.27;5.40;;;8.00;99.90;;;;;;5047503;28;20044;-74
2022/04/07 04:57:16;;;;;;;11.95;4.75;;;8.00;99.90;;;;;;5045620;28;20052;-75
2022/04/07 04:59:42;;;;;;;18.00;5.97;;;8.00;99.90;;;;;;5048161;28;20033;-75
2022/04/07 05:02:08;;;;;;;17.85;5.40;;;8.00;99.90;;;;;;5042632;28;20502;-75
2022/04/07 05:04:35;;;;;;;24.33;6.75;;;8.00;99.90;;;;;;5041199;28;20045;-75
2022/04/07 05:07:01;;;;;;;19.90;6.32;;;7.90;99.90;;;;;;5036404;28;20041;-75
2022/04/07 05:09:27;;;;;;;19.25;6.03;;;7.90;99.90;;;;;;5030045;28;20116;-74
2022/04/07 05:11:52;;;;;;;22.35;6.20;;;7.90;99.90;;;;;;5031202;28;20220;-75
2022/04/07 05:14:18;;;;;;;22.80;6.78;;;7.80;99.90;;;;;;4998329;28;20037;-76
2022/04/07 05:16:44;;;;;;;19.95;6.07;;;7.80;99.90;;;;;;5033035;28;20087;-75
2022/04/07 05:19:09;;;;;;;17.75;7.00;;;7.90;99.90;;;;;;5031038;28;20050;-75
2022/04/07 05:21:35;;;;;;;15.32;6.53;;;7.90;99.90;;;;;;5030035;28;20038;-76
2022/04/07 05:24:01;;;;;;;16.95;6.90;;;7.90;99.90;;;;;;5030615;28;20161;-76
2022/04/07 05:26:26;;;;;;;20.88;6.05;;;7.90;99.90;;;;;;5029654;28;20116;-77
2022/04/07 05:28:52;;;;;;;14.15;5.32;;;7.90;99.90;;;;;;5029954;28;20038;-78
2022/04/07 05:31:18;;;;;;;11.18;5.00;;;7.90;99.90;;;;;;5029378;28;20041;-79
2022/04/07 05:33:44;;;;;;;16.85;5.97;;;7.90;99.90;;;;;;5030482;28;20049;-78
2022/04/07 05:36:10;;;;;;;14.73;5.65;;;7.90;99.90;;;;;;5030698;28;20049;-79
2022/04/07 05:38:35;;;;;;;11.05;5.53;;;7.80;99.90;;;;;;5029551;28;20292;-76
2022/04/07 05:41:01;;;;;;;15.60;5.95;;;7.90;99.90;;;;;;5031214;28;20087;-78
2022/04/07 05:43:27;;;;;;;11.75;5.03;;;7.80;99.90;;;;;;5027103;28;20041;-78
2022/04/07 05:45:52;;;;;;;13.23;5.80;;;7.90;99.90;;;;;;5029762;28;20045;-77
2022/04/07 05:48:18;;;;;;;12.55;5.07;;;7.90;99.90;;;;;;5030451;28;20443;-76
2022/04/07 05:50:45;;;;;;;12.95;5.03;;;7.90;99.90;;;;;;5030562;28;20041;-76
2022/04/07 05:53:11;;;;;;;15.98;4.70;;;7.90;99.90;;;;;;5028396;28;20540;-77
2022/04/07 05:55:37;;;;;;;14.10;4.63;;;7.90;99.90;;;;;;5028659;28;20041;-78
2022/04/07 05:58:05;;;;;;;11.40;4.97;;;8.00;99.90;;;;;;5029879;28;20037;-79
2022/04/07 06:00:31;;;;;;;11.10;3.85;;;7.90;99.90;;;;;;5028681;28;20037;-78
2022/04/07 06:02:57;;;;;;;12.73;4.75;;;8.00;99.90;;;;;;5029199;28;20040;-77
2022/04/07 06:05:23;;;;;;;11.45;4.85;;;8.00;99.90;;;;;;5029491;28;20083;-78
2022/04/07 06:07:49;;;;;;;13.90;4.18;;;8.00;99.90;;;;;;5012500;28;20103;-76
2022/04/07 06:10:15;;;;;;;9.93;4.00;;;8.00;99.90;;;;;;5030016;28;20050;-75
2022/04/07 06:12:42;;;;;;;10.88;4.20;;;8.00;99.90;;;;;;5022381;28;20052;-76
2022/04/07 06:15:12;;;;;;;11.90;4.82;;;8.00;99.90;;;;;;5037773;28;20069;-75
2022/04/07 06:17:41;;;;;;;12.48;4.68;;;7.90;99.90;;;;;;5044005;28;20055;-75
2022/04/07 06:20:09;;;;;;;7.05;2.85;;;7.90;99.90;;;;;;5040618;28;20041;-75
2022/04/07 06:22:36;;;;;;;2.20;1.20;;;7.60;99.90;;;;;;5025562;28;20049;-75
2022/04/07 06:25:02;;;;;;;2.13;1.08;;;7.10;99.90;;;;;;5027076;28;20099;-76
2022/04/07 06:27:39;;;;;;;1.67;1.02;;;6.50;99.90;;;;;;5040070;28;20037;-75
2022/04/07 06:30:06;;;;;;;1.52;0.70;;;6.10;99.90;;;;;;5035340;28;20085;-75
2022/04/07 06:32:33;;;;;;;1.70;0.90;;;5.90;99.90;;;;;;5029359;28;20041;-77
2022/04/07 06:34:59;;;;;;;3.13;1.10;;;5.70;99.90;;;;;;5036766;28;20045;-76
2022/04/07 06:37:25;;;;;;;1.15;0.73;;;5.50;99.90;;;;;;5025156;28;20038;-76
2022/04/07 06:39:57;;;;;;;4.25;0.95;;;5.40;99.90;;;;;;5017256;28;20079;-76
2022/04/07 06:42:23;;;;;;;1.70;1.07;;;5.30;99.90;;;;;;5027691;28;20045;-76
2022/04/07 06:44:51;;;;;;;1.77;0.90;;;5.30;99.90;;;;;;5012311;28;20193;-76
2022/04/07 06:47:16;;;;;;;3.38;1.10;;;5.20;99.90;;;;;;5008386;28;20507;-76
2022/04/07 06:49:42;;;;;;;1.50;1.20;;;5.20;99.90;;;;;;5009442;28;20110;-76
2022/04/07 06:52:08;;;;;;;2.55;1.08;;;5.10;99.90;;;;;;5018611;28;20057;-75
2022/04/07 06:54:34;;;;;;;1.08;0.90;;;5.10;99.90;;;;;;4984487;28;20075;-75
2022/04/07 06:56:59;;;;;;;3.95;1.17;;;4.90;99.90;;;;;;5018701;28;20099;-75
2022/04/07 06:59:25;;;;;;;3.13;0.90;;;4.90;99.90;;;;;;5007263;28;20045;-75
2022/04/07 07:01:51;;;;;;;2.35;1.05;;;4.80;99.90;;;;;;5001584;28;20088;-75
2022/04/07 07:04:19;;;;;;;4.43;1.13;;;4.80;99.90;;;;;;5017770;28;20046;-75
2022/04/07 07:06:45;;;;;;;3.38;1.00;;;4.70;99.90;;;;;;5018079;28;20072;-75
2022/04/07 07:09:10;;;;;;;2.70;1.13;;;4.60;99.90;;;;;;5020201;28;20045;-75
2022/04/07 07:11:36;;;;;;;3.03;0.90;;;4.50;99.90;;;;;;5000941;28;20056;-75
2022/04/07 07:14:02;;;;;;;3.65;0.73;;;4.50;99.90;;;;;;4986549;28;20171;-75
2022/04/07 07:16:27;;;;;;;1.77;0.93;;;4.50;99.90;;;;;;5019594;28;20048;-75
2022/04/07 07:18:53;;;;;;;2.03;0.93;;;4.50;99.90;;;;;;5020129;28;20087;-75
2022/04/07 07:21:19;;;;;;;3.40;1.10;;;4.40;99.90;;;;;;5020170;28;20068;-74
2022/04/07 07:23:44;;;;;;;0.80;0.60;;;4.40;99.90;;;;;;5017402;28;20578;-76
2022/04/07 07:26:11;;;;;;;0.75;0.52;;;4.40;99.90;;;;;;5018934;28;20044;-75
2022/04/07 07:28:37;;;;;;;1.95;0.70;;;4.40;99.90;;;;;;5018543;28;20103;-76
2022/04/07 07:31:03;;;;;;;5.22;0.77;;;4.40;99.90;;;;;;5019152;28;20037;-75
2022/04/07 07:33:29;;;;;;;1.88;1.17;;;4.30;99.90;;;;;;5019321;28;20038;-75
2022/04/07 07:35:55;;;;;;;5.47;1.13;;;4.30;99.90;;;;;;5018867;28;20628;-75
2022/04/07 07:38:21;;;;;;;1.92;0.90;;;4.30;99.90;;;;;;5019497;28;20137;-75
2022/04/07 07:40:47;;;;;;;2.90;1.38;;;4.30;99.90;;;;;;5018783;28;20152;-75
2022/04/07 07:43:13;;;;;;;2.50;1.00;;;4.30;99.90;;;;;;5022023;28;20144;-75
2022/04/07 07:45:39;;;;;;;3.55;1.08;;;4.20;99.90;;;;;;5021341;28;20447;-75
2022/04/07 07:48:05;;;;;;;6.85;1.27;;;4.30;99.90;;;;;;5020579;28;20045;-75
2022/04/07 07:50:30;;;;;;;2.70;1.10;;;4.20;99.90;;;;;;5022072;28;20048;-75
2022/04/07 07:52:56;;;;;;;1.80;0.95;;;4.20;99.90;;;;;;5022786;28;20671;-75
2022/04/07 07:55:22;;;;;;;3.40;1.10;;;4.20;99.90;;;;;;5005575;28;20465;-75
2022/04/07 07:57:48;;;;;;;2.30;1.20;;;4.20;99.90;;;;;;5022926;28;20037;-75
2022/04/07 08:00:17;;;;;;;2.67;1.20;;;4.20;99.90;;;;;;5021017;28;20049;-75
2022/04/07 08:02:43;;;;;;;6.05;1.70;;;4.10;99.90;;;;;;5046061;28;20520;-75
2022/04/07 08:05:09;;;;;;;4.70;1.20;;;4.10;99.90;;;;;;5032396;28;20048;-76
2022/04/07 08:07:40;;;;;;;3.83;1.10;;;4.40;99.90;;;;;;5031533;28;20560;-76
2022/04/07 08:10:06;;;;;;;3.30;1.17;;;4.10;99.90;;;;;;5032116;28;20045;-76
2022/04/07 08:12:32;;;;;;;2.17;1.25;;;4.20;99.90;;;;;;5030887;28;20039;-76
2022/04/07 08:14:57;;;;;;;2.65;1.27;;;4.10;99.90;;;;;;5031951;28;20041;-76
2022/04/07 08:17:23;;;;;;;4.40;1.08;;;4.10;99.90;;;;;;5031653;28;20041;-76
2022/04/07 08:19:49;;;;;;;3.40;1.48;;;4.20;99.90;;;;;;5064757;28;20049;-75
2022/04/07 08:22:15;;;;;;;4.47;1.50;;;4.20;99.90;;;;;;5031498;28;20067;-76
2022/04/07 08:24:40;;;;;;;4.10;1.50;;;4.20;99.90;;;;;;5024384;28;20549;-75
2022/04/07 08:27:07;;;;;;;3.20;1.40;;;4.20;99.90;;;;;;5023336;28;20040;-75
2022/04/07 08:29:33;;;;;;;4.45;1.55;;;4.40;99.90;;;;;;5022641;28;20041;-75
2022/04/07 08:31:59;;;;;;;11.25;1.70;;;4.40;99.90;;;;;;5032285;28;20053;-75
2022/04/07 08:34:25;;;;;;;1.80;1.23;;;4.40;99.90;;;;;;5031950;28;20033;-75
2022/04/07 08:36:54;;;;;;;2.50;1.30;;;4.50;99.90;;;;;;5027188;28;20030;-75
2022/04/07 08:39:20;;;;;;;1.90;1.02;;;4.50;99.90;;;;;;5064333;28;20111;-75
2022/04/07 08:41:48;;;;;;;4.20;1.42;;;4.60;99.90;;;;;;5030734;28;20037;-75
2022/04/07 08:44:16;;;;;;;1.42;1.15;;;4.60;99.90;;;;;;5030565;28;20415;-75
2022/04/07 08:46:53;;;;;;;2.95;1.10;;;4.70;99.90;;;;;;5031426;28;20033;-75
2022/04/07 08:49:23;;;;;;;3.30;1.15;;;4.70;99.90;;;;;;5032658;28;20060;-75
2022/04/07 08:51:53;;;;;;;1.33;1.15;;;4.80;99.90;;;;;;5029816;28;20089;-75
2022/04/07 08:54:22;;;;;;;4.47;1.45;;;5.00;99.90;;;;;;5030983;28;20973;-75
2022/04/07 08:56:48;;;;;;;2.58;1.08;;;5.00;99.90;;;;;;5031637;28;20045;-75
2022/04/07 08:59:14;;;;;;;2.88;1.27;;;5.00;99.90;;;;;;5032050;28;20502;-75
2022/04/07 09:01:40;;;;;;;2.38;1.30;;;5.00;99.90;;;;;;5029598;28;20045;-75
2022/04/07 09:04:06;;;;;;;2.22;1.15;;;5.00;99.90;;;;;;5030986;28;20511;-75
2022/04/07 09:06:37;;;;;;;5.00;0.93;;;5.50;99.90;;;;;;5030322;28;20084;-75
2022/04/07 09:09:16;;;;;;;3.45;1.60;;;6.40;99.90;;;;;;5029314;28;20099;-75
2022/04/07 09:11:43;;;;;;;5.15;1.35;;;7.10;99.90;;;;;;5029409;28;20053;-75
2022/04/07 09:14:10;;;;;;;2.60;1.02;;;7.50;99.90;;;;;;5031971;28;20053;-75
2022/04/07 09:16:40;;;;;;;2.28;1.02;;;7.90;99.90;;;;;;5031186;28;20261;-75
2022/04/07 09:19:08;;;;;;;6.93;1.42;;;8.40;99.90;;;;;;5032010;28;20076;-75
2022/04/07 09:21:35;;;;;;;2.28;1.25;;;8.80;99.90;;;;;;5053583;28;20497;-75
2022/04/07 09:24:05;;;;;;;2.55;1.00;;;8.90;99.90;;;;;;5032159;28;20049;-76
2022/04/07 09:26:33;;;;;;;4.15;1.48;;;9.10;99.90;;;;;;5020003;28;20517;-75
2022/04/07 09:29:07;;;;;;;3.17;1.40;;;9.20;99.90;;;;;;5020626;28;20152;-76
2022/04/07 09:31:37;;;;;;;2.63;1.33;;;9.50;99.90;;;;;;5020934;28;20413;-75
2022/04/07 09:34:03;;;;;;;5.35;1.10;;;9.90;99.90;;;;;;5018432;28;20038;-76
2022/04/07 09:36:29;;;;;;;1.55;1.20;;;10.10;99.90;;;;;;5020543;28;20730;-77
2022/04/07 09:38:55;;;;;;;2.70;1.13;;;10.00;99.90;;;;;;5002859;28;20513;-76
2022/04/07 09:41:23;;;;;;;2.40;1.45;;;10.00;99.90;;;;;;5018588;28;20394;-76
2022/04/07 09:43:53;;;;;;;4.13;1.33;;;10.30;99.90;;;;;;5021052;28;20128;-76
2022/04/07 09:46:20;;;;;;;6.80;1.38;;;10.70;99.90;;;;;;5019618;28;20084;-76
2022/04/07 09:49:07;;;;;;;4.78;1.75;;;10.50;99.90;;;;;;5019776;28;20391;-76
2022/04/07 09:51:49;;;;;;;6.05;1.88;;;10.60;99.90;;;;;;5019634;28;20426;-76
2022/04/07 09:54:16;;;;;;;6.07;1.50;;;10.50;99.90;;;;;;5018842;28;20057;-76
2022/04/07 09:56:52;;;;;;;5.13;1.70;;;9.90;99.90;;;;;;5020624;28;20038;-76
2022/04/07 09:59:19;;;;;;;4.25;1.65;;;9.90;99.90;;;;;;5020626;28;20033;-76
2022/04/07 10:01:48;;;;;;;6.85;2.08;;;9.90;99.90;;;;;;5020523;28;20415;-76
2022/04/07 10:04:14;;;;;;;8.82;2.30;;;9.80;99.90;;;;;;5002608;28;20045;-76
2022/04/07 10:06:40;;;;;;;7.53;2.42;;;9.70;99.90;;;;;;5002293;28;20266;-76
2022/04/07 10:09:08;;;;;;;7.43;2.70;;;9.50;99.90;;;;;;5019917;28;20632;-75
2022/04/07 10:11:35;;;;;;;3.95;2.47;;;9.30;99.90;;;;;;5018123;28;20042;-76
2022/04/07 10:14:01;;;;;;;6.65;2.13;;;9.10;99.90;;;;;;5020899;28;20508;-76
2022/04/07 10:16:27;;;;;;;7.32;2.03;;;9.00;99.90;;;;;;5020917;28;20069;-75
2022/04/07 10:19:38;;;;;;;8.13;2.10;;;8.90;99.90;;;;;;5020306;28;20083;-75
2022/04/07 10:22:13;;;;;;;6.75;1.77;;;8.80;99.90;;;;;;5000822;28;20057;-75
2022/04/07 10:24:46;;;;;;;5.78;2.20;;;8.70;99.90;;;;;;5021060;28;20037;-75
2022/04/07 10:27:13;;;;;;;6.38;1.70;;;8.70;99.90;;;;;;5018968;28;20107;-75
2022/04/07 10:29:40;;;;;;;9.73;2.25;;;8.70;99.90;;;;;;5019128;28;20790;-75
2022/04/07 10:32:11;;;;;;;7.13;2.00;;;8.60;99.90;;;;;;5019120;28;20499;-75
2022/04/07 10:35:00;;;;;;;8.07;2.20;;;8.40;99.90;;;;;;5020256;28;20048;-76
2022/04/07 10:37:29;;;;;;;8.48;1.92;;;8.40;99.90;;;;;;5018963;28;20536;-75
2022/04/07 10:39:55;;;;;;;5.50;2.28;;;8.40;99.90;;;;;;5018648;28;20081;-75
2022/04/07 10:42:59;;;;;;;6.57;1.98;;;8.80;99.90;;;;;;5018872;28;20135;-75
2022/04/07 10:45:33;;;;;;;6.93;2.15;;;9.20;99.90;;;;;;5002552;28;20090;-76
2022/04/07 10:48:28;;;;;;;9.38;2.47;;;9.60;99.90;;;;;;5020320;28;20041;-75
2022/04/07 10:50:55;;;;;;;10.68;2.60;;;9.80;99.90;;;;;;5000512;28;20076;-75
2022/04/07 10:53:28;;;;;;;11.00;2.42;;;9.80;99.90;;;;;;5017992;28;20466;-74
2022/04/07 10:56:00;;;;;;;7.90;2.55;;;10.10;99.90;;;;;;5019811;28;20125;-75
2022/04/07 10:58:46;;;;;;;8.70;2.13;;;10.10;99.90;;;;;;5019211;28;20033;-75
2022/04/07 11:01:32;;;;;;;9.25;2.47;;;10.30;99.90;;;;;;5031143;28;20038;-75
2022/04/07 11:04:25;;;;;;;5.05;2.03;;;10.20;99.90;;;;;;5019696;28;20044;-75
2022/04/07 11:07:10;;;;;;;7.65;2.78;;;9.70;99.90;;;;;;5018133;28;20029;-75
2022/04/07 11:09:54;;;;;;;11.60;2.13;;;9.40;99.90;;;;;;5018203;28;20485;-74
2022/04/07 11:12:29;;;;;;;12.55;2.33;;;9.20;99.90;;;;;;5014702;28;20667;-74
2022/04/07 11:15:04;;;;;;;11.80;2.72;;;9.30;99.90;;;;;;5019316;28;20045;-75
2022/04/07 11:17:37;;;;;;;7.32;2.13;;;9.40;99.90;;;;;;5032961;28;20046;-75
2022/04/07 11:20:18;;;;;;;9.25;2.47;;;9.50;99.90;;;;;;5021651;28;20041;-75
2022/04/07 11:22:58;;;;;;;11.35;2.67;;;9.70;99.90;;;;;;5035201;28;20396;-74
2022/04/07 11:25:31;;;;;;;11.40;2.65;;;9.80;99.90;;;;;;5022230;28;20041;-75
2022/04/07 11:28:15;;;;;;;6.60;2.42;;;9.80;99.90;;;;;;5023454;28;20033;-74
2022/04/07 11:30:49;;;;;;;17.38;2.50;;;9.60;99.90;;;;;;4988547;28;20049;-74
2022/04/07 11:33:27;;;;;;;9.70;2.42;;;9.40;99.90;;;;;;5018295;28;20417;-74
2022/04/07 11:36:07;;;;;;;6.40;1.98;;;9.20;99.90;;;;;;5030990;28;20047;-74
2022/04/07 11:38:35;;;;;;;4.60;1.77;;;8.30;99.90;;;;;;5031537;28;20124;-74
2022/04/07 11:41:07;;;;;;;9.85;2.53;;;8.00;99.90;;;;;;5032806;28;20513;-74
2022/04/07 11:43:35;;;;;;;10.18;2.22;;;8.20;99.90;;;;;;5049095;28;20041;-75
2022/04/07 11:46:02;;;;;;;13.65;2.58;;;8.30;99.90;;;;;;5033093;28;20039;-75
2022/04/07 11:48:33;;;;;;;12.60;2.75;;;8.70;99.90;;;;;;5032846;28;20034;-74
2022/04/07 11:51:01;;;;;;;12.15;2.70;;;9.10;99.90;;;;;;5014960;28;20128;-75
2022/04/07 11:53:28;;;;;;;9.85;2.30;;;9.30;99.90;;;;;;5032490;28;20060;-74
2022/04/07 11:55:54;;;;;;;9.57;2.90;;;9.50;99.90;;;;;;5033254;28;20483;-75
2022/04/07 11:58:20;;;;;;;10.82;3.08;;;9.70;99.90;;;;;;5032704;28;20048;-74
2022/04/07 12:00:46;;;;;;;8.60;2.40;;;9.70;99.90;;;;;;5032988;28;20037;-75
2022/04/07 12:03:12;;;;;;;7.47;2.63;;;9.70;99.90;;;;;;5031304;28;20498;-74
2022/04/07 12:05:43;;;;;;;13.13;2.97;;;9.70;99.90;;;;;;4999065;28;20038;-74
2022/04/07 12:08:15;;;;;;;10.10;2.30;;;9.70;99.90;;;;;;5032459;28;20045;-74
2022/04/07 12:10:42;;;;;;;;;;;9.70;99.90;;;;;;5033763;28;20112;-74
2022/04/07 12:13:08;;;;;;;8.13;1.98;;;9.60;99.90;;;;;;5032870;28;19956;-75
2022/04/07 12:15:35;;;;;;;11.65;2.40;;;9.70;99.90;;;;;;5014520;28;20083;-74
2022/04/07 12:18:09;;;;;;;6.95;2.38;;;9.90;99.90;;;;;;5032962;28;20045;-73
2022/04/07 12:20:37;;;;;;;10.18;2.10;;;10.10;99.90;;;;;;5032404;28;20109;-74
2022/04/07 12:23:08;;;;;;;12.00;2.83;;;10.40;99.90;;;;;;5033409;28;20041;-73
2022/04/07 12:25:39;;;;;;;7.27;2.30;;;10.50;99.90;;;;;;5032407;28;20550;-74
2022/04/07 12:28:16;;;;;;;9.23;2.20;;;10.20;99.90;;;;;;5031012;28;20094;-73
2022/04/07 12:30:45;;;;;;;8.38;2.00;;;9.90;99.90;;;;;;5031484;28;20045;-73
2022/04/07 12:33:11;;;;;;;13.90;2.53;;;9.80;99.90;;;;;;5024540;28;20495;-73
2022/04/07 12:35:48;;;;;;;10.50;2.92;;;9.90;99.90;;;;;;5028128;28;20045;-74
2022/04/07 12:38:14;;;;;;;8.07;2.10;;;10.00;99.90;;;;;;5029098;28;20053;-73
2022/04/07 12:40:40;;;;;;;5.35;1.95;;;10.20;99.90;;;;;;5029324;28;20045;-73
2022/04/07 12:43:06;;;;;;;5.22;2.10;;;10.50;99.90;;;;;;5029025;28;20044;-73
2022/04/07 12:45:31;;;;;;;15.10;2.72;;;10.50;99.90;;;;;;4994456;28;20089;-73
2022/04/07 12:48:18;;;;;;;6.45;2.70;;;10.50;99.90;;;;;;5029001;28;20041;-73
2022/04/07 12:50:43;;;;;;;8.55;2.30;;;10.50;99.90;;;;;;4995158;28;20373;-75
2022/04/07 12:53:31;;;;;;;3.85;1.65;;;10.50;99.90;;;;;;5028023;28;20414;-74
2022/04/07 12:56:02;;;;;;;11.43;2.28;;;10.60;99.90;;;;;;5042895;28;20052;-74
2022/04/07 12:58:29;;;;;;;5.53;1.98;;;10.60;99.90;;;;;;5011655;28;20041;-74